sensor_id;sensor_type;location;lat;lon;timestamp;P1;durP1;ratioP1;P2;durP2;ratioP2
60722;SDS011;46574;52.818;6.516;2023-07-31T00:01:16;4.55;;;2.83;;
60722;SDS011;46574;52.818;6.516;2023-07-31T00:03:41;3.42;;;2.83;;
60722;SDS011;46574;52.818;6.516;2023-07-31T00:06:07;4.20;;;3.00;;
60722;SDS011;46574;52.818;6.516;2023-07-31T00:08:33;4.65;;;3.10;;
60722;SDS011;46574;52.818;6.516;2023-07-31T00:10:58;3.78;;;2.63;;
60722;SDS011;46574;52.818;6.516;2023-07-31T00:13:24;3.30;;;2.28;;
60722;SDS011;46574;52.818;6.516;2023-07-31T00:15:50;3.08;;;2.63;;
60722;SDS011;46574;52.818;6.516;2023-07-31T00:18:15;4.18;;;3.30;;
60722;SDS011;46574;52.818;6.516;2023-07-31T00:20:41;3.67;;;3.20;;
60722;SDS011;46574;52.818;6.516;2023-07-31T00:23:07;4.93;;;2.65;;
60722;SDS011;46574;52.818;6.516;2023-07-31T00:25:32;3.60;;;2.95;;
60722;SDS011;46574;52.818;6.516;2023-07-31T00:27:58;4.15;;;2.85;;
60722;SDS011;46574;52.818;6.516;2023-07-31T00:30:24;4.22;;;3.03;;
60722;SDS011;46574;52.818;6.516;2023-07-31T00:32:50;3.22;;;2.83;;
60722;SDS011;46574;52.818;6.516;2023-07-31T00:35:16;3.15;;;2.85;;
60722;SDS011;46574;52.818;6.516;2023-07-31T00:37:41;2.83;;;2.60;;
60722;SDS011;46574;52.818;6.516;2023-07-31T00:40:07;3.10;;;2.63;;
60722;SDS011;46574;52.818;6.516;2023-07-31T00:42:33;2.78;;;2.58;;
60722;SDS011;46574;52.818;6.516;2023-07-31T00:44:59;3.78;;;2.88;;
60722;SDS011;46574;52.818;6.516;2023-07-31T00:47:25;5.10;;;3.00;;
60722;SDS011;46574;52.818;6.516;2023-07-31T00:49:51;3.25;;;2.45;;
60722;SDS011;46574;52.818;6.516;2023-07-31T00:52:17;2.83;;;2.33;;
60722;SDS011;46574;52.818;6.516;2023-07-31T00:54:43;4.68;;;3.15;;
60722;SDS011;46574;52.818;6.516;2023-07-31T00:57:09;3.45;;;2.22;;
60722;SDS011;46574;52.818;6.516;2023-07-31T00:59:35;3.03;;;2.47;;
60722;SDS011;46574;52.818;6.516;2023-07-31T01:02:02;3.60;;;2.47;;
60722;SDS011;46574;52.818;6.516;2023-07-31T01:04:28;3.67;;;2.38;;
60722;SDS011;46574;52.818;6.516;2023-07-31T01:12:33;3.08;;;1.60;;
60722;SDS011;46574;52.818;6.516;2023-07-31T01:15:03;2.85;;;2.00;;
60722;SDS011;46574;52.818;6.516;2023-07-31T01:17:29;2.65;;;1.83;;
60722;SDS011;46574;52.818;6.516;2023-07-31T01:19:55;2.22;;;1.55;;
60722;SDS011;46574;52.818;6.516;2023-07-31T01:25:11;2.00;;;1.60;;
60722;SDS011;46574;52.818;6.516;2023-07-31T01:27:44;1.50;;;1.40;;
60722;SDS011;46574;52.818;6.516;2023-07-31T01:30:20;1.73;;;1.05;;
60722;SDS011;46574;52.818;6.516;2023-07-31T01:32:48;1.85;;;1.40;;
60722;SDS011;46574;52.818;6.516;2023-07-31T01:35:16;2.42;;;1.80;;
60722;SDS011;46574;52.818;6.516;2023-07-31T01:37:42;1.52;;;1.42;;
60722;SDS011;46574;52.818;6.516;2023-07-31T01:40:08;1.63;;;1.02;;
60722;SDS011;46574;52.818;6.516;2023-07-31T01:42:34;1.15;;;1.05;;
60722;SDS011;46574;52.818;6.516;2023-07-31T01:45:00;1.45;;;1.35;;
60722;SDS011;46574;52.818;6.516;2023-07-31T01:47:25;1.85;;;1.30;;
60722;SDS011;46574;52.818;6.516;2023-07-31T01:49:51;1.30;;;1.20;;
60722;SDS011;46574;52.818;6.516;2023-07-31T01:52:16;1.77;;;1.30;;
60722;SDS011;46574;52.818;6.516;2023-07-31T01:54:42;1.58;;;1.48;;
60722;SDS011;46574;52.818;6.516;2023-07-31T01:57:08;1.77;;;1.10;;
60722;SDS011;46574;52.818;6.516;2023-07-31T01:59:33;1.15;;;0.98;;
60722;SDS011;46574;52.818;6.516;2023-07-31T02:01:59;2.65;;;1.20;;
60722;SDS011;46574;52.818;6.516;2023-07-31T02:04:25;1.08;;;1.00;;
60722;SDS011;46574;52.818;6.516;2023-07-31T02:06:50;1.40;;;1.30;;
60722;SDS011;46574;52.818;6.516;2023-07-31T02:09:17;1.23;;;1.05;;
60722;SDS011;46574;52.818;6.516;2023-07-31T02:11:43;1.27;;;1.17;;
60722;SDS011;46574;52.818;6.516;2023-07-31T02:14:08;1.40;;;1.23;;
60722;SDS011;46574;52.818;6.516;2023-07-31T02:16:34;1.05;;;0.90;;
60722;SDS011;46574;52.818;6.516;2023-07-31T02:19:00;1.75;;;1.17;;
60722;SDS011;46574;52.818;6.516;2023-07-31T02:21:25;1.05;;;1.00;;
60722;SDS011;46574;52.818;6.516;2023-07-31T02:23:51;1.23;;;0.93;;
60722;SDS011;46574;52.818;6.516;2023-07-31T02:26:16;1.42;;;1.00;;
60722;SDS011;46574;52.818;6.516;2023-07-31T02:28:42;1.00;;;0.90;;
60722;SDS011;46574;52.818;6.516;2023-07-31T02:31:08;1.20;;;0.90;;
60722;SDS011;46574;52.818;6.516;2023-07-31T02:33:34;1.27;;;0.95;;
60722;SDS011;46574;52.818;6.516;2023-07-31T02:35:59;1.73;;;1.17;;
60722;SDS011;46574;52.818;6.516;2023-07-31T02:38:25;0.90;;;0.80;;
60722;SDS011;46574;52.818;6.516;2023-07-31T02:40:51;1.45;;;1.00;;
60722;SDS011;46574;52.818;6.516;2023-07-31T02:43:17;0.80;;;0.77;;
60722;SDS011;46574;52.818;6.516;2023-07-31T02:45:42;1.13;;;0.85;;
60722;SDS011;46574;52.818;6.516;2023-07-31T02:48:08;1.20;;;0.90;;
60722;SDS011;46574;52.818;6.516;2023-07-31T02:50:34;0.90;;;0.90;;
60722;SDS011;46574;52.818;6.516;2023-07-31T02:53:00;2.25;;;1.10;;
60722;SDS011;46574;52.818;6.516;2023-07-31T02:55:25;1.00;;;0.88;;
60722;SDS011;46574;52.818;6.516;2023-07-31T02:57:51;1.40;;;1.20;;
60722;SDS011;46574;52.818;6.516;2023-07-31T03:00:17;2.25;;;1.30;;
60722;SDS011;46574;52.818;6.516;2023-07-31T03:02:43;1.98;;;1.30;;
60722;SDS011;46574;52.818;6.516;2023-07-31T03:05:09;1.27;;;1.23;;
60722;SDS011;46574;52.818;6.516;2023-07-31T03:07:35;1.50;;;1.17;;
60722;SDS011;46574;52.818;6.516;2023-07-31T03:10:00;1.50;;;1.40;;
60722;SDS011;46574;52.818;6.516;2023-07-31T03:12:26;1.30;;;1.20;;
60722;SDS011;46574;52.818;6.516;2023-07-31T03:14:52;2.50;;;1.58;;
60722;SDS011;46574;52.818;6.516;2023-07-31T03:17:18;1.95;;;1.50;;
60722;SDS011;46574;52.818;6.516;2023-07-31T03:19:43;1.70;;;1.60;;
60722;SDS011;46574;52.818;6.516;2023-07-31T03:22:09;1.98;;;1.77;;
60722;SDS011;46574;52.818;6.516;2023-07-31T03:24:34;2.00;;;1.90;;
60722;SDS011;46574;52.818;6.516;2023-07-31T03:27:00;2.70;;;2.10;;
60722;SDS011;46574;52.818;6.516;2023-07-31T03:29:26;2.00;;;1.80;;
60722;SDS011;46574;52.818;6.516;2023-07-31T03:31:51;2.10;;;2.00;;
60722;SDS011;46574;52.818;6.516;2023-07-31T03:34:17;2.20;;;2.00;;
60722;SDS011;46574;52.818;6.516;2023-07-31T03:36:43;1.98;;;1.60;;
60722;SDS011;46574;52.818;6.516;2023-07-31T03:39:09;2.03;;;1.92;;
60722;SDS011;46574;52.818;6.516;2023-07-31T03:41:35;1.60;;;1.48;;
60722;SDS011;46574;52.818;6.516;2023-07-31T03:44:00;2.60;;;1.77;;
60722;SDS011;46574;52.818;6.516;2023-07-31T03:46:26;2.35;;;1.73;;
60722;SDS011;46574;52.818;6.516;2023-07-31T03:48:52;2.60;;;1.77;;
60722;SDS011;46574;52.818;6.516;2023-07-31T03:51:17;2.30;;;1.50;;
60722;SDS011;46574;52.818;6.516;2023-07-31T03:53:43;2.30;;;2.10;;
60722;SDS011;46574;52.818;6.516;2023-07-31T03:56:09;1.50;;;1.40;;
60722;SDS011;46574;52.818;6.516;2023-07-31T03:58:35;2.25;;;2.00;;
60722;SDS011;46574;52.818;6.516;2023-07-31T04:01:02;2.60;;;1.98;;
60722;SDS011;46574;52.818;6.516;2023-07-31T04:03:27;4.13;;;2.90;;
60722;SDS011;46574;52.818;6.516;2023-07-31T04:05:54;4.28;;;2.67;;
60722;SDS011;46574;52.818;6.516;2023-07-31T04:08:23;4.60;;;2.88;;
60722;SDS011;46574;52.818;6.516;2023-07-31T04:10:48;5.05;;;3.38;;
60722;SDS011;46574;52.818;6.516;2023-07-31T04:13:14;5.03;;;2.55;;
60722;SDS011;46574;52.818;6.516;2023-07-31T04:15:40;4.13;;;2.63;;
60722;SDS011;46574;52.818;6.516;2023-07-31T04:18:06;4.47;;;3.05;;
60722;SDS011;46574;52.818;6.516;2023-07-31T04:20:32;6.45;;;3.50;;
60722;SDS011;46574;52.818;6.516;2023-07-31T04:22:58;8.27;;;3.45;;
60722;SDS011;46574;52.818;6.516;2023-07-31T04:25:23;7.25;;;3.53;;
60722;SDS011;46574;52.818;6.516;2023-07-31T04:27:49;5.78;;;3.63;;
60722;SDS011;46574;52.818;6.516;2023-07-31T04:30:15;7.35;;;3.50;;
60722;SDS011;46574;52.818;6.516;2023-07-31T04:32:40;5.95;;;3.60;;
60722;SDS011;46574;52.818;6.516;2023-07-31T04:35:06;6.53;;;3.88;;
60722;SDS011;46574;52.818;6.516;2023-07-31T04:37:32;6.55;;;4.10;;
60722;SDS011;46574;52.818;6.516;2023-07-31T04:39:58;6.35;;;3.70;;
60722;SDS011;46574;52.818;6.516;2023-07-31T04:42:23;5.55;;;3.83;;
60722;SDS011;46574;52.818;6.516;2023-07-31T04:44:49;10.45;;;4.65;;
60722;SDS011;46574;52.818;6.516;2023-07-31T04:47:15;9.35;;;4.22;;
60722;SDS011;46574;52.818;6.516;2023-07-31T04:49:40;6.72;;;4.03;;
60722;SDS011;46574;52.818;6.516;2023-07-31T04:52:06;9.70;;;4.45;;
60722;SDS011;46574;52.818;6.516;2023-07-31T04:54:32;11.18;;;5.22;;
60722;SDS011;46574;52.818;6.516;2023-07-31T04:56:57;10.02;;;4.55;;
60722;SDS011;46574;52.818;6.516;2023-07-31T04:59:23;10.68;;;4.55;;
60722;SDS011;46574;52.818;6.516;2023-07-31T05:01:49;8.90;;;5.00;;
60722;SDS011;46574;52.818;6.516;2023-07-31T05:04:14;12.07;;;6.03;;
60722;SDS011;46574;52.818;6.516;2023-07-31T05:06:41;8.95;;;4.53;;
60722;SDS011;46574;52.818;6.516;2023-07-31T05:09:07;14.35;;;5.78;;
60722;SDS011;46574;52.818;6.516;2023-07-31T05:11:34;13.65;;;5.85;;
60722;SDS011;46574;52.818;6.516;2023-07-31T05:14:00;14.05;;;6.57;;
60722;SDS011;46574;52.818;6.516;2023-07-31T05:16:26;12.60;;;6.10;;
60722;SDS011;46574;52.818;6.516;2023-07-31T05:18:51;12.93;;;5.85;;
60722;SDS011;46574;52.818;6.516;2023-07-31T05:21:17;13.10;;;5.70;;
60722;SDS011;46574;52.818;6.516;2023-07-31T05:23:43;17.00;;;6.93;;
60722;SDS011;46574;52.818;6.516;2023-07-31T05:26:08;16.85;;;7.10;;
60722;SDS011;46574;52.818;6.516;2023-07-31T05:28:35;14.80;;;6.40;;
60722;SDS011;46574;52.818;6.516;2023-07-31T05:31:01;16.85;;;6.90;;
60722;SDS011;46574;52.818;6.516;2023-07-31T05:33:28;16.55;;;6.53;;
60722;SDS011;46574;52.818;6.516;2023-07-31T05:35:54;22.45;;;8.70;;
60722;SDS011;46574;52.818;6.516;2023-07-31T05:38:20;18.15;;;7.05;;
60722;SDS011;46574;52.818;6.516;2023-07-31T05:40:46;17.77;;;8.15;;
60722;SDS011;46574;52.818;6.516;2023-07-31T05:43:12;15.63;;;7.00;;
60722;SDS011;46574;52.818;6.516;2023-07-31T05:45:38;20.08;;;7.65;;
60722;SDS011;46574;52.818;6.516;2023-07-31T05:48:05;19.48;;;7.47;;
60722;SDS011;46574;52.818;6.516;2023-07-31T05:50:30;20.40;;;8.10;;
60722;SDS011;46574;52.818;6.516;2023-07-31T05:52:56;17.50;;;7.50;;
60722;SDS011;46574;52.818;6.516;2023-07-31T05:55:22;17.42;;;6.97;;
60722;SDS011;46574;52.818;6.516;2023-07-31T05:57:48;20.75;;;8.68;;
60722;SDS011;46574;52.818;6.516;2023-07-31T06:00:14;15.13;;;7.00;;
60722;SDS011;46574;52.818;6.516;2023-07-31T06:02:40;20.35;;;8.05;;
60722;SDS011;46574;52.818;6.516;2023-07-31T06:05:05;18.48;;;7.60;;
60722;SDS011;46574;52.818;6.516;2023-07-31T06:07:31;17.50;;;7.50;;
60722;SDS011;46574;52.818;6.516;2023-07-31T06:09:57;16.60;;;8.60;;
60722;SDS011;46574;52.818;6.516;2023-07-31T06:12:28;18.40;;;7.60;;
60722;SDS011;46574;52.818;6.516;2023-07-31T06:14:54;17.23;;;8.23;;
60722;SDS011;46574;52.818;6.516;2023-07-31T06:17:20;26.02;;;9.13;;
60722;SDS011;46574;52.818;6.516;2023-07-31T06:19:46;16.50;;;8.00;;
60722;SDS011;46574;52.818;6.516;2023-07-31T06:22:12;18.27;;;8.43;;
60722;SDS011;46574;52.818;6.516;2023-07-31T06:24:38;17.15;;;7.65;;
60722;SDS011;46574;52.818;6.516;2023-07-31T06:27:03;18.85;;;7.93;;
60722;SDS011;46574;52.818;6.516;2023-07-31T06:29:31;27.50;;;8.75;;
60722;SDS011;46574;52.818;6.516;2023-07-31T06:31:56;19.10;;;7.82;;
60722;SDS011;46574;52.818;6.516;2023-07-31T06:34:22;18.00;;;8.52;;
60722;SDS011;46574;52.818;6.516;2023-07-31T06:36:48;18.27;;;8.88;;
60722;SDS011;46574;52.818;6.516;2023-07-31T06:39:13;19.08;;;8.57;;
60722;SDS011;46574;52.818;6.516;2023-07-31T06:41:39;18.88;;;8.55;;
60722;SDS011;46574;52.818;6.516;2023-07-31T06:44:05;15.07;;;8.82;;
60722;SDS011;46574;52.818;6.516;2023-07-31T06:46:30;18.40;;;9.18;;
60722;SDS011;46574;52.818;6.516;2023-07-31T06:48:56;19.17;;;8.00;;
60722;SDS011;46574;52.818;6.516;2023-07-31T06:51:22;18.52;;;9.07;;
60722;SDS011;46574;52.818;6.516;2023-07-31T06:53:47;20.40;;;9.10;;
60722;SDS011;46574;52.818;6.516;2023-07-31T06:56:13;15.70;;;8.55;;
60722;SDS011;46574;52.818;6.516;2023-07-31T06:58:39;14.30;;;7.85;;
60722;SDS011;46574;52.818;6.516;2023-07-31T07:01:05;16.95;;;8.40;;
60722;SDS011;46574;52.818;6.516;2023-07-31T07:03:30;16.13;;;7.30;;
60722;SDS011;46574;52.818;6.516;2023-07-31T07:05:57;10.70;;;6.70;;
60722;SDS011;46574;52.818;6.516;2023-07-31T07:08:23;11.10;;;5.70;;
60722;SDS011;46574;52.818;6.516;2023-07-31T07:10:50;9.70;;;5.50;;
60722;SDS011;46574;52.818;6.516;2023-07-31T07:13:15;9.32;;;5.45;;
60722;SDS011;46574;52.818;6.516;2023-07-31T07:15:43;8.68;;;5.55;;
60722;SDS011;46574;52.818;6.516;2023-07-31T07:18:12;8.65;;;5.18;;
60722;SDS011;46574;52.818;6.516;2023-07-31T07:20:39;9.60;;;5.65;;
60722;SDS011;46574;52.818;6.516;2023-07-31T07:23:05;10.27;;;5.43;;
60722;SDS011;46574;52.818;6.516;2023-07-31T07:25:30;12.77;;;5.95;;
60722;SDS011;46574;52.818;6.516;2023-07-31T07:27:56;11.20;;;6.43;;
60722;SDS011;46574;52.818;6.516;2023-07-31T07:30:22;7.35;;;5.03;;
60722;SDS011;46574;52.818;6.516;2023-07-31T07:32:50;10.88;;;5.40;;
60722;SDS011;46574;52.818;6.516;2023-07-31T07:35:15;8.98;;;5.43;;
60722;SDS011;46574;52.818;6.516;2023-07-31T07:37:41;8.48;;;4.88;;
60722;SDS011;46574;52.818;6.516;2023-07-31T07:40:07;10.40;;;5.28;;
60722;SDS011;46574;52.818;6.516;2023-07-31T07:42:33;6.45;;;4.13;;
60722;SDS011;46574;52.818;6.516;2023-07-31T07:44:59;7.32;;;4.53;;
60722;SDS011;46574;52.818;6.516;2023-07-31T07:47:24;7.57;;;3.97;;
60722;SDS011;46574;52.818;6.516;2023-07-31T07:49:50;5.57;;;3.95;;
60722;SDS011;46574;52.818;6.516;2023-07-31T07:52:16;6.18;;;3.30;;
60722;SDS011;46574;52.818;6.516;2023-07-31T07:54:41;7.50;;;3.67;;
60722;SDS011;46574;52.818;6.516;2023-07-31T07:57:07;6.60;;;3.50;;
60722;SDS011;46574;52.818;6.516;2023-07-31T07:59:33;5.22;;;3.88;;
60722;SDS011;46574;52.818;6.516;2023-07-31T08:01:58;5.28;;;3.50;;
60722;SDS011;46574;52.818;6.516;2023-07-31T08:04:24;5.55;;;3.25;;
60722;SDS011;46574;52.818;6.516;2023-07-31T08:06:49;5.72;;;3.22;;
60722;SDS011;46574;52.818;6.516;2023-07-31T08:09:15;5.85;;;3.58;;
60722;SDS011;46574;52.818;6.516;2023-07-31T08:11:41;4.82;;;3.30;;
60722;SDS011;46574;52.818;6.516;2023-07-31T08:14:06;5.57;;;3.47;;
60722;SDS011;46574;52.818;6.516;2023-07-31T08:16:32;4.03;;;2.92;;
60722;SDS011;46574;52.818;6.516;2023-07-31T08:18:58;3.50;;;2.58;;
60722;SDS011;46574;52.818;6.516;2023-07-31T08:21:23;4.18;;;2.55;;
60722;SDS011;46574;52.818;6.516;2023-07-31T08:23:49;4.13;;;3.00;;
60722;SDS011;46574;52.818;6.516;2023-07-31T08:26:18;3.03;;;2.63;;
60722;SDS011;46574;52.818;6.516;2023-07-31T08:28:45;4.85;;;2.50;;
60722;SDS011;46574;52.818;6.516;2023-07-31T08:31:11;3.72;;;2.53;;
60722;SDS011;46574;52.818;6.516;2023-07-31T08:33:37;2.85;;;2.40;;
60722;SDS011;46574;52.818;6.516;2023-07-31T08:36:04;2.90;;;2.60;;
60722;SDS011;46574;52.818;6.516;2023-07-31T08:38:30;3.22;;;2.80;;
60722;SDS011;46574;52.818;6.516;2023-07-31T08:40:59;4.00;;;2.65;;
60722;SDS011;46574;52.818;6.516;2023-07-31T08:43:25;3.35;;;2.60;;
60722;SDS011;46574;52.818;6.516;2023-07-31T08:45:52;3.13;;;2.53;;
60722;SDS011;46574;52.818;6.516;2023-07-31T08:48:19;3.15;;;2.30;;
60722;SDS011;46574;52.818;6.516;2023-07-31T08:50:46;3.43;;;1.93;;
60722;SDS011;46574;52.818;6.516;2023-07-31T08:53:12;2.83;;;2.38;;
60722;SDS011;46574;52.818;6.516;2023-07-31T08:55:38;2.00;;;1.90;;
60722;SDS011;46574;52.818;6.516;2023-07-31T08:58:04;2.65;;;1.85;;
60722;SDS011;46574;52.818;6.516;2023-07-31T09:00:31;2.38;;;2.00;;
60722;SDS011;46574;52.818;6.516;2023-07-31T09:03:03;2.83;;;1.80;;
60722;SDS011;46574;52.818;6.516;2023-07-31T09:05:35;2.03;;;1.85;;
60722;SDS011;46574;52.818;6.516;2023-07-31T09:08:05;1.55;;;1.40;;
60722;SDS011;46574;52.818;6.516;2023-07-31T09:10:32;1.42;;;1.33;;
60722;SDS011;46574;52.818;6.516;2023-07-31T09:12:58;1.88;;;1.58;;
60722;SDS011;46574;52.818;6.516;2023-07-31T09:15:24;1.55;;;1.45;;
60722;SDS011;46574;52.818;6.516;2023-07-31T09:17:58;2.67;;;1.60;;
60722;SDS011;46574;52.818;6.516;2023-07-31T09:20:26;2.42;;;2.22;;
60722;SDS011;46574;52.818;6.516;2023-07-31T09:22:51;2.15;;;1.70;;
60722;SDS011;46574;52.818;6.516;2023-07-31T09:30:18;1.75;;;1.23;;
60722;SDS011;46574;52.818;6.516;2023-07-31T09:32:45;1.92;;;1.30;;
60722;SDS011;46574;52.818;6.516;2023-07-31T09:35:19;1.73;;;1.20;;
60722;SDS011;46574;52.818;6.516;2023-07-31T09:37:53;1.55;;;1.45;;
60722;SDS011;46574;52.818;6.516;2023-07-31T09:40:28;1.20;;;1.10;;
60722;SDS011;46574;52.818;6.516;2023-07-31T09:42:56;1.17;;;1.08;;
60722;SDS011;46574;52.818;6.516;2023-07-31T09:45:25;1.05;;;0.95;;
60722;SDS011;46574;52.818;6.516;2023-07-31T09:47:51;0.93;;;0.93;;
60722;SDS011;46574;52.818;6.516;2023-07-31T09:50:17;1.42;;;1.00;;
60722;SDS011;46574;52.818;6.516;2023-07-31T09:52:45;1.30;;;1.20;;
60722;SDS011;46574;52.818;6.516;2023-07-31T09:55:10;1.65;;;1.55;;
60722;SDS011;46574;52.818;6.516;2023-07-31T09:57:38;1.23;;;1.13;;
60722;SDS011;46574;52.818;6.516;2023-07-31T10:00:07;1.40;;;1.30;;
60722;SDS011;46574;52.818;6.516;2023-07-31T10:02:34;1.40;;;1.30;;
60722;SDS011;46574;52.818;6.516;2023-07-31T10:05:02;1.40;;;1.30;;
60722;SDS011;46574;52.818;6.516;2023-07-31T10:07:28;2.35;;;1.50;;
60722;SDS011;46574;52.818;6.516;2023-07-31T10:09:57;1.50;;;1.40;;
60722;SDS011;46574;52.818;6.516;2023-07-31T10:12:28;1.70;;;1.60;;
60722;SDS011;46574;52.818;6.516;2023-07-31T10:14:56;1.65;;;1.55;;
60722;SDS011;46574;52.818;6.516;2023-07-31T10:17:22;1.52;;;1.42;;
60722;SDS011;46574;52.818;6.516;2023-07-31T10:19:49;1.83;;;1.70;;
60722;SDS011;46574;52.818;6.516;2023-07-31T10:22:16;1.85;;;1.75;;
60722;SDS011;46574;52.818;6.516;2023-07-31T10:24:43;1.45;;;1.35;;
60722;SDS011;46574;52.818;6.516;2023-07-31T10:27:11;1.60;;;1.50;;
60722;SDS011;46574;52.818;6.516;2023-07-31T10:29:37;1.80;;;1.70;;
60722;SDS011;46574;52.818;6.516;2023-07-31T10:32:04;1.70;;;1.60;;
60722;SDS011;46574;52.818;6.516;2023-07-31T10:34:36;2.13;;;1.90;;
60722;SDS011;46574;52.818;6.516;2023-07-31T10:37:20;1.67;;;1.50;;
60722;SDS011;46574;52.818;6.516;2023-07-31T10:40:02;1.60;;;1.50;;
60722;SDS011;46574;52.818;6.516;2023-07-31T10:42:30;1.33;;;1.23;;
60722;SDS011;46574;52.818;6.516;2023-07-31T10:45:04;1.70;;;1.60;;
60722;SDS011;46574;52.818;6.516;2023-07-31T10:47:38;2.30;;;1.60;;
60722;SDS011;46574;52.818;6.516;2023-07-31T10:50:21;1.70;;;1.45;;
60722;SDS011;46574;52.818;6.516;2023-07-31T10:52:49;1.42;;;1.33;;
60722;SDS011;46574;52.818;6.516;2023-07-31T10:58:09;1.40;;;1.30;;
60722;SDS011;46574;52.818;6.516;2023-07-31T11:00:37;1.60;;;1.50;;
60722;SDS011;46574;52.818;6.516;2023-07-31T11:08:33;1.40;;;1.30;;
60722;SDS011;46574;52.818;6.516;2023-07-31T11:13:29;1.10;;;1.08;;
60722;SDS011;46574;52.818;6.516;2023-07-31T11:15:55;1.25;;;1.20;;
60722;SDS011;46574;52.818;6.516;2023-07-31T11:18:21;1.35;;;1.27;;
60722;SDS011;46574;52.818;6.516;2023-07-31T11:20:47;2.63;;;1.10;;
60722;SDS011;46574;52.818;6.516;2023-07-31T11:23:13;1.00;;;1.00;;
60722;SDS011;46574;52.818;6.516;2023-07-31T11:25:41;1.00;;;1.00;;
60722;SDS011;46574;52.818;6.516;2023-07-31T11:28:12;1.05;;;1.05;;
60722;SDS011;46574;52.818;6.516;2023-07-31T11:30:39;0.82;;;0.80;;
60722;SDS011;46574;52.818;6.516;2023-07-31T11:33:06;0.95;;;0.95;;
60722;SDS011;46574;52.818;6.516;2023-07-31T11:35:36;1.10;;;0.98;;
60722;SDS011;46574;52.818;6.516;2023-07-31T11:38:12;2.13;;;0.93;;
60722;SDS011;46574;52.818;6.516;2023-07-31T11:40:47;1.95;;;0.90;;
60722;SDS011;46574;52.818;6.516;2023-07-31T11:43:13;0.80;;;0.80;;
60722;SDS011;46574;52.818;6.516;2023-07-31T11:45:42;1.58;;;1.00;;
60722;SDS011;46574;52.818;6.516;2023-07-31T11:48:26;2.15;;;1.67;;
60722;SDS011;46574;52.818;6.516;2023-07-31T11:50:55;2.35;;;1.55;;
60722;SDS011;46574;52.818;6.516;2023-07-31T11:53:28;3.22;;;1.63;;
60722;SDS011;46574;52.818;6.516;2023-07-31T11:55:59;2.45;;;1.73;;
60722;SDS011;46574;52.818;6.516;2023-07-31T11:58:25;2.28;;;1.90;;
60722;SDS011;46574;52.818;6.516;2023-07-31T12:00:52;4.50;;;2.53;;
60722;SDS011;46574;52.818;6.516;2023-07-31T12:03:18;2.70;;;2.50;;
60722;SDS011;46574;52.818;6.516;2023-07-31T12:05:46;3.08;;;2.13;;
60722;SDS011;46574;52.818;6.516;2023-07-31T12:08:12;3.70;;;1.92;;
60722;SDS011;46574;52.818;6.516;2023-07-31T12:10:38;3.95;;;1.40;;
60722;SDS011;46574;52.818;6.516;2023-07-31T12:13:09;3.90;;;1.42;;
60722;SDS011;46574;52.818;6.516;2023-07-31T12:15:42;2.00;;;1.20;;
60722;SDS011;46574;52.818;6.516;2023-07-31T12:18:09;2.05;;;1.40;;
60722;SDS011;46574;52.818;6.516;2023-07-31T12:20:40;1.85;;;1.10;;
60722;SDS011;46574;52.818;6.516;2023-07-31T12:23:07;1.50;;;0.98;;
60722;SDS011;46574;52.818;6.516;2023-07-31T12:25:37;2.50;;;1.30;;
60722;SDS011;46574;52.818;6.516;2023-07-31T12:28:06;1.70;;;1.60;;
60722;SDS011;46574;52.818;6.516;2023-07-31T12:30:36;2.13;;;1.80;;
60722;SDS011;46574;52.818;6.516;2023-07-31T12:33:06;3.42;;;2.30;;
60722;SDS011;46574;52.818;6.516;2023-07-31T12:35:37;3.92;;;2.53;;
60722;SDS011;46574;52.818;6.516;2023-07-31T12:38:05;4.25;;;2.42;;
60722;SDS011;46574;52.818;6.516;2023-07-31T12:40:31;3.05;;;2.45;;
60722;SDS011;46574;52.818;6.516;2023-07-31T12:42:57;4.65;;;2.30;;
60722;SDS011;46574;52.818;6.516;2023-07-31T12:45:25;4.22;;;2.45;;
60722;SDS011;46574;52.818;6.516;2023-07-31T12:47:52;5.03;;;2.60;;
60722;SDS011;46574;52.818;6.516;2023-07-31T12:50:17;4.40;;;2.70;;
60722;SDS011;46574;52.818;6.516;2023-07-31T12:52:43;4.10;;;2.83;;
60722;SDS011;46574;52.818;6.516;2023-07-31T12:55:09;5.10;;;2.90;;
60722;SDS011;46574;52.818;6.516;2023-07-31T12:57:36;7.05;;;2.55;;
60722;SDS011;46574;52.818;6.516;2023-07-31T13:00:02;3.70;;;2.83;;
60722;SDS011;46574;52.818;6.516;2023-07-31T13:02:28;3.97;;;2.58;;
60722;SDS011;46574;52.818;6.516;2023-07-31T13:04:54;4.55;;;2.60;;
60722;SDS011;46574;52.818;6.516;2023-07-31T13:07:21;4.65;;;2.83;;
60722;SDS011;46574;52.818;6.516;2023-07-31T13:09:48;4.65;;;2.75;;
60722;SDS011;46574;52.818;6.516;2023-07-31T13:12:14;5.68;;;2.83;;
60722;SDS011;46574;52.818;6.516;2023-07-31T13:14:39;4.97;;;2.58;;
60722;SDS011;46574;52.818;6.516;2023-07-31T13:17:05;5.80;;;3.67;;
60722;SDS011;46574;52.818;6.516;2023-07-31T13:19:31;2.65;;;2.40;;
60722;SDS011;46574;52.818;6.516;2023-07-31T13:21:56;5.47;;;3.00;;
60722;SDS011;46574;52.818;6.516;2023-07-31T13:24:22;5.88;;;3.00;;
60722;SDS011;46574;52.818;6.516;2023-07-31T13:26:48;5.25;;;2.42;;
60722;SDS011;46574;52.818;6.516;2023-07-31T13:29:13;4.80;;;2.92;;
60722;SDS011;46574;52.818;6.516;2023-07-31T13:31:39;6.35;;;2.58;;
60722;SDS011;46574;52.818;6.516;2023-07-31T13:34:05;4.00;;;2.60;;
60722;SDS011;46574;52.818;6.516;2023-07-31T13:36:30;4.35;;;2.90;;
60722;SDS011;46574;52.818;6.516;2023-07-31T13:38:56;6.65;;;2.47;;
60722;SDS011;46574;52.818;6.516;2023-07-31T13:41:21;4.32;;;2.20;;
60722;SDS011;46574;52.818;6.516;2023-07-31T13:43:47;4.95;;;2.40;;
60722;SDS011;46574;52.818;6.516;2023-07-31T13:46:13;4.50;;;2.45;;
60722;SDS011;46574;52.818;6.516;2023-07-31T13:48:38;5.00;;;2.20;;
60722;SDS011;46574;52.818;6.516;2023-07-31T13:51:04;5.40;;;2.30;;
60722;SDS011;46574;52.818;6.516;2023-07-31T13:53:30;4.43;;;2.20;;
60722;SDS011;46574;52.818;6.516;2023-07-31T13:55:56;5.13;;;2.20;;
60722;SDS011;46574;52.818;6.516;2023-07-31T13:58:21;5.07;;;2.47;;
60722;SDS011;46574;52.818;6.516;2023-07-31T14:00:47;4.75;;;2.25;;
60722;SDS011;46574;52.818;6.516;2023-07-31T14:03:12;5.72;;;2.58;;
60722;SDS011;46574;52.818;6.516;2023-07-31T14:05:38;7.32;;;2.70;;
60722;SDS011;46574;52.818;6.516;2023-07-31T14:08:04;4.68;;;2.45;;
60722;SDS011;46574;52.818;6.516;2023-07-31T14:10:30;4.95;;;2.83;;
60722;SDS011;46574;52.818;6.516;2023-07-31T14:12:55;5.07;;;2.70;;
60722;SDS011;46574;52.818;6.516;2023-07-31T14:15:21;5.72;;;3.30;;
60722;SDS011;46574;52.818;6.516;2023-07-31T14:17:46;5.30;;;2.40;;
60722;SDS011;46574;52.818;6.516;2023-07-31T14:20:12;7.38;;;2.60;;
60722;SDS011;46574;52.818;6.516;2023-07-31T14:22:38;5.20;;;2.75;;
60722;SDS011;46574;52.818;6.516;2023-07-31T14:25:03;5.78;;;2.60;;
60722;SDS011;46574;52.818;6.516;2023-07-31T14:27:30;4.63;;;2.85;;
60722;SDS011;46574;52.818;6.516;2023-07-31T14:29:55;5.03;;;3.25;;
60722;SDS011;46574;52.818;6.516;2023-07-31T14:32:21;6.32;;;3.03;;
60722;SDS011;46574;52.818;6.516;2023-07-31T14:34:48;6.22;;;3.20;;
60722;SDS011;46574;52.818;6.516;2023-07-31T14:37:14;6.07;;;2.97;;
60722;SDS011;46574;52.818;6.516;2023-07-31T14:39:39;4.32;;;2.70;;
60722;SDS011;46574;52.818;6.516;2023-07-31T14:42:05;6.80;;;3.25;;
60722;SDS011;46574;52.818;6.516;2023-07-31T14:44:31;4.60;;;2.47;;
60722;SDS011;46574;52.818;6.516;2023-07-31T14:46:57;6.20;;;3.10;;
60722;SDS011;46574;52.818;6.516;2023-07-31T14:49:22;4.90;;;2.58;;
60722;SDS011;46574;52.818;6.516;2023-07-31T14:51:48;3.22;;;2.92;;
60722;SDS011;46574;52.818;6.516;2023-07-31T14:54:14;5.40;;;3.00;;
60722;SDS011;46574;52.818;6.516;2023-07-31T14:56:40;4.82;;;3.00;;
60722;SDS011;46574;52.818;6.516;2023-07-31T14:59:05;5.65;;;2.92;;
60722;SDS011;46574;52.818;6.516;2023-07-31T15:01:33;5.65;;;3.03;;
60722;SDS011;46574;52.818;6.516;2023-07-31T15:03:58;5.03;;;2.80;;
60722;SDS011;46574;52.818;6.516;2023-07-31T15:06:24;6.03;;;2.75;;